sensor_id;sensor_type;location;lat;lon;timestamp;P1;durP1;ratioP1;P2;durP2;ratioP2
69030;SDS011;56083;48.774;8.942;2023-07-13T00:02:01;4.13;;;1.17;;
69030;SDS011;56083;48.774;8.942;2023-07-13T00:04:26;5.45;;;1.23;;
69030;SDS011;56083;48.774;8.942;2023-07-13T00:06:52;3.88;;;1.40;;
69030;SDS011;56083;48.774;8.942;2023-07-13T00:09:18;9.00;;;1.30;;
69030;SDS011;56083;48.774;8.942;2023-07-13T00:11:45;5.85;;;1.33;;
69030;SDS011;56083;48.774;8.942;2023-07-13T00:14:14;4.75;;;1.30;;
69030;SDS011;56083;48.774;8.942;2023-07-13T00:16:41;7.63;;;1.30;;
69030;SDS011;56083;48.774;8.942;2023-07-13T00:19:08;4.85;;;1.25;;
69030;SDS011;56083;48.774;8.942;2023-07-13T00:21:35;10.40;;;1.25;;
69030;SDS011;56083;48.774;8.942;2023-07-13T00:24:01;4.47;;;1.10;;
69030;SDS011;56083;48.774;8.942;2023-07-13T00:26:27;7.55;;;1.20;;
69030;SDS011;56083;48.774;8.942;2023-07-13T00:28:57;7.03;;;1.23;;
69030;SDS011;56083;48.774;8.942;2023-07-13T00:31:22;6.00;;;1.00;;
69030;SDS011;56083;48.774;8.942;2023-07-13T00:33:48;4.75;;;1.25;;
69030;SDS011;56083;48.774;8.942;2023-07-13T00:36:14;10.23;;;1.25;;
69030;SDS011;56083;48.774;8.942;2023-07-13T00:38:40;9.30;;;1.10;;
69030;SDS011;56083;48.774;8.942;2023-07-13T00:41:05;5.15;;;1.17;;
69030;SDS011;56083;48.774;8.942;2023-07-13T00:43:31;4.68;;;1.33;;
69030;SDS011;56083;48.774;8.942;2023-07-13T00:48:45;5.63;;;1.35;;
69030;SDS011;56083;48.774;8.942;2023-07-13T00:51:13;4.85;;;1.10;;
69030;SDS011;56083;48.774;8.942;2023-07-13T00:53:42;8.85;;;1.20;;
69030;SDS011;56083;48.774;8.942;2023-07-13T00:56:08;6.30;;;1.40;;
69030;SDS011;56083;48.774;8.942;2023-07-13T00:58:35;4.68;;;1.30;;
69030;SDS011;56083;48.774;8.942;2023-07-13T01:01:01;4.50;;;1.02;;
69030;SDS011;56083;48.774;8.942;2023-07-13T01:03:27;5.57;;;1.20;;
69030;SDS011;56083;48.774;8.942;2023-07-13T01:05:53;4.10;;;1.10;;
69030;SDS011;56083;48.774;8.942;2023-07-13T01:08:20;9.07;;;1.10;;
69030;SDS011;56083;48.774;8.942;2023-07-13T01:10:53;7.75;;;1.20;;
69030;SDS011;56083;48.774;8.942;2023-07-13T01:13:20;5.25;;;1.20;;
69030;SDS011;56083;48.774;8.942;2023-07-13T01:15:47;8.93;;;1.30;;
69030;SDS011;56083;48.774;8.942;2023-07-13T01:18:17;5.47;;;1.10;;
69030;SDS011;56083;48.774;8.942;2023-07-13T01:20:50;5.68;;;1.20;;
69030;SDS011;56083;48.774;8.942;2023-07-13T01:23:20;13.88;;;1.30;;
69030;SDS011;56083;48.774;8.942;2023-07-13T01:25:47;5.70;;;1.33;;
69030;SDS011;56083;48.774;8.942;2023-07-13T01:28:14;6.00;;;1.30;;
69030;SDS011;56083;48.774;8.942;2023-07-13T01:30:43;5.13;;;1.20;;
69030;SDS011;56083;48.774;8.942;2023-07-13T01:33:11;4.82;;;1.20;;
69030;SDS011;56083;48.774;8.942;2023-07-13T01:35:41;5.28;;;1.38;;
69030;SDS011;56083;48.774;8.942;2023-07-13T01:38:08;4.20;;;1.25;;
69030;SDS011;56083;48.774;8.942;2023-07-13T01:40:35;3.13;;;1.10;;
69030;SDS011;56083;48.774;8.942;2023-07-13T01:43:01;6.20;;;1.30;;
69030;SDS011;56083;48.774;8.942;2023-07-13T01:45:27;4.95;;;1.45;;
69030;SDS011;56083;48.774;8.942;2023-07-13T01:47:53;6.25;;;1.55;;
69030;SDS011;56083;48.774;8.942;2023-07-13T01:50:19;6.18;;;1.38;;
69030;SDS011;56083;48.774;8.942;2023-07-13T01:52:44;7.07;;;1.35;;
69030;SDS011;56083;48.774;8.942;2023-07-13T01:55:10;5.05;;;1.42;;
69030;SDS011;56083;48.774;8.942;2023-07-13T01:57:36;6.70;;;1.30;;
69030;SDS011;56083;48.774;8.942;2023-07-13T02:00:06;7.97;;;1.70;;
69030;SDS011;56083;48.774;8.942;2023-07-13T02:02:34;4.85;;;1.40;;
69030;SDS011;56083;48.774;8.942;2023-07-13T02:05:00;4.22;;;1.35;;
69030;SDS011;56083;48.774;8.942;2023-07-13T02:07:25;8.05;;;1.40;;
69030;SDS011;56083;48.774;8.942;2023-07-13T02:09:52;7.45;;;1.42;;
69030;SDS011;56083;48.774;8.942;2023-07-13T02:12:18;5.40;;;1.45;;
69030;SDS011;56083;48.774;8.942;2023-07-13T02:14:44;8.90;;;1.70;;
69030;SDS011;56083;48.774;8.942;2023-07-13T02:17:10;4.80;;;1.38;;
69030;SDS011;56083;48.774;8.942;2023-07-13T02:19:36;4.00;;;1.60;;
69030;SDS011;56083;48.774;8.942;2023-07-13T02:22:01;3.38;;;1.40;;
69030;SDS011;56083;48.774;8.942;2023-07-13T02:24:27;3.30;;;1.27;;
69030;SDS011;56083;48.774;8.942;2023-07-13T02:26:53;8.98;;;1.55;;
69030;SDS011;56083;48.774;8.942;2023-07-13T02:29:19;4.55;;;1.40;;
69030;SDS011;56083;48.774;8.942;2023-07-13T02:31:44;6.80;;;1.58;;
69030;SDS011;56083;48.774;8.942;2023-07-13T02:34:10;7.32;;;1.63;;
69030;SDS011;56083;48.774;8.942;2023-07-13T02:36:35;6.28;;;1.40;;
69030;SDS011;56083;48.774;8.942;2023-07-13T02:39:02;4.15;;;1.40;;
69030;SDS011;56083;48.774;8.942;2023-07-13T02:41:29;10.88;;;1.92;;
69030;SDS011;56083;48.774;8.942;2023-07-13T02:43:54;5.93;;;1.23;;
69030;SDS011;56083;48.774;8.942;2023-07-13T02:46:28;3.83;;;1.40;;
69030;SDS011;56083;48.774;8.942;2023-07-13T02:48:54;3.42;;;1.48;;
69030;SDS011;56083;48.774;8.942;2023-07-13T02:51:19;3.72;;;1.67;;
69030;SDS011;56083;48.774;8.942;2023-07-13T02:53:45;5.72;;;1.58;;
69030;SDS011;56083;48.774;8.942;2023-07-13T02:56:11;8.15;;;1.55;;
69030;SDS011;56083;48.774;8.942;2023-07-13T02:58:36;6.85;;;1.73;;
69030;SDS011;56083;48.774;8.942;2023-07-13T03:01:07;6.65;;;1.60;;
69030;SDS011;56083;48.774;8.942;2023-07-13T03:03:34;3.58;;;1.42;;
69030;SDS011;56083;48.774;8.942;2023-07-13T03:06:01;6.65;;;1.65;;
69030;SDS011;56083;48.774;8.942;2023-07-13T03:08:28;6.20;;;1.70;;
69030;SDS011;56083;48.774;8.942;2023-07-13T03:11:06;5.25;;;1.60;;
69030;SDS011;56083;48.774;8.942;2023-07-13T03:13:33;6.43;;;1.73;;
69030;SDS011;56083;48.774;8.942;2023-07-13T03:15:59;6.20;;;1.48;;
69030;SDS011;56083;48.774;8.942;2023-07-13T03:18:28;7.25;;;1.70;;
69030;SDS011;56083;48.774;8.942;2023-07-13T03:20:54;9.43;;;2.00;;
69030;SDS011;56083;48.774;8.942;2023-07-13T03:23:20;9.35;;;1.80;;
69030;SDS011;56083;48.774;8.942;2023-07-13T03:25:47;6.50;;;1.52;;
69030;SDS011;56083;48.774;8.942;2023-07-13T03:28:13;8.63;;;1.70;;
69030;SDS011;56083;48.774;8.942;2023-07-13T03:30:39;9.65;;;1.63;;
69030;SDS011;56083;48.774;8.942;2023-07-13T03:33:07;7.70;;;1.77;;
69030;SDS011;56083;48.774;8.942;2023-07-13T03:35:33;6.88;;;1.88;;
69030;SDS011;56083;48.774;8.942;2023-07-13T03:37:59;13.32;;;1.80;;
69030;SDS011;56083;48.774;8.942;2023-07-13T03:40:27;8.30;;;1.70;;
69030;SDS011;56083;48.774;8.942;2023-07-13T03:42:53;5.95;;;1.70;;
69030;SDS011;56083;48.774;8.942;2023-07-13T03:45:19;16.08;;;2.25;;
69030;SDS011;56083;48.774;8.942;2023-07-13T03:47:44;3.75;;;1.70;;
69030;SDS011;56083;48.774;8.942;2023-07-13T03:50:11;7.03;;;2.17;;
69030;SDS011;56083;48.774;8.942;2023-07-13T03:52:37;6.38;;;1.60;;
69030;SDS011;56083;48.774;8.942;2023-07-13T03:55:03;7.55;;;1.85;;
69030;SDS011;56083;48.774;8.942;2023-07-13T03:57:29;5.70;;;1.80;;
69030;SDS011;56083;48.774;8.942;2023-07-13T03:59:54;5.07;;;1.50;;
69030;SDS011;56083;48.774;8.942;2023-07-13T04:02:20;8.82;;;1.70;;
69030;SDS011;56083;48.774;8.942;2023-07-13T04:04:46;4.50;;;1.58;;
69030;SDS011;56083;48.774;8.942;2023-07-13T04:07:11;5.43;;;1.42;;
69030;SDS011;56083;48.774;8.942;2023-07-13T04:09:37;10.02;;;1.85;;
69030;SDS011;56083;48.774;8.942;2023-07-13T04:12:06;7.97;;;1.77;;
69030;SDS011;56083;48.774;8.942;2023-07-13T04:14:32;11.48;;;2.05;;
69030;SDS011;56083;48.774;8.942;2023-07-13T04:16:58;11.18;;;1.90;;
69030;SDS011;56083;48.774;8.942;2023-07-13T04:19:23;4.18;;;1.60;;
69030;SDS011;56083;48.774;8.942;2023-07-13T04:21:49;7.28;;;1.95;;
69030;SDS011;56083;48.774;8.942;2023-07-13T04:24:17;11.82;;;1.83;;
69030;SDS011;56083;48.774;8.942;2023-07-13T04:26:42;5.65;;;1.98;;
69030;SDS011;56083;48.774;8.942;2023-07-13T04:29:08;10.52;;;1.70;;
69030;SDS011;56083;48.774;8.942;2023-07-13T04:31:34;4.93;;;2.03;;
69030;SDS011;56083;48.774;8.942;2023-07-13T04:34:00;6.28;;;2.00;;
69030;SDS011;56083;48.774;8.942;2023-07-13T04:36:25;8.73;;;1.80;;
69030;SDS011;56083;48.774;8.942;2023-07-13T04:38:52;15.93;;;2.40;;
69030;SDS011;56083;48.774;8.942;2023-07-13T04:41:19;5.78;;;1.80;;
69030;SDS011;56083;48.774;8.942;2023-07-13T04:43:45;12.13;;;1.80;;
69030;SDS011;56083;48.774;8.942;2023-07-13T04:46:12;7.10;;;2.17;;
69030;SDS011;56083;48.774;8.942;2023-07-13T04:48:39;12.80;;;3.55;;
69030;SDS011;56083;48.774;8.942;2023-07-13T04:51:04;7.78;;;2.47;;
69030;SDS011;56083;48.774;8.942;2023-07-13T04:53:30;12.88;;;2.13;;
69030;SDS011;56083;48.774;8.942;2023-07-13T04:55:59;6.30;;;2.00;;
69030;SDS011;56083;48.774;8.942;2023-07-13T04:58:25;9.63;;;2.35;;
69030;SDS011;56083;48.774;8.942;2023-07-13T05:00:51;7.07;;;2.30;;
69030;SDS011;56083;48.774;8.942;2023-07-13T05:03:17;6.05;;;1.98;;
69030;SDS011;56083;48.774;8.942;2023-07-13T05:05:42;8.80;;;2.03;;
69030;SDS011;56083;48.774;8.942;2023-07-13T05:08:08;16.15;;;2.15;;
69030;SDS011;56083;48.774;8.942;2023-07-13T05:10:34;8.73;;;2.47;;
69030;SDS011;56083;48.774;8.942;2023-07-13T05:13:00;6.68;;;2.10;;
69030;SDS011;56083;48.774;8.942;2023-07-13T05:15:26;7.50;;;2.30;;
69030;SDS011;56083;48.774;8.942;2023-07-13T05:17:52;7.40;;;1.70;;
69030;SDS011;56083;48.774;8.942;2023-07-13T05:20:20;8.05;;;2.10;;
69030;SDS011;56083;48.774;8.942;2023-07-13T05:22:45;5.45;;;1.85;;
69030;SDS011;56083;48.774;8.942;2023-07-13T05:25:13;7.90;;;2.05;;
69030;SDS011;56083;48.774;8.942;2023-07-13T05:27:39;12.45;;;2.20;;
69030;SDS011;56083;48.774;8.942;2023-07-13T05:30:05;5.53;;;1.83;;
69030;SDS011;56083;48.774;8.942;2023-07-13T05:32:35;9.05;;;1.85;;
69030;SDS011;56083;48.774;8.942;2023-07-13T05:35:01;5.32;;;1.92;;
69030;SDS011;56083;48.774;8.942;2023-07-13T05:37:27;8.10;;;1.88;;
69030;SDS011;56083;48.774;8.942;2023-07-13T05:39:53;6.65;;;1.98;;
69030;SDS011;56083;48.774;8.942;2023-07-13T05:42:18;10.30;;;2.00;;
69030;SDS011;56083;48.774;8.942;2023-07-13T05:44:44;11.80;;;2.25;;
69030;SDS011;56083;48.774;8.942;2023-07-13T05:47:10;12.57;;;2.60;;
69030;SDS011;56083;48.774;8.942;2023-07-13T05:49:35;8.73;;;2.35;;
69030;SDS011;56083;48.774;8.942;2023-07-13T05:52:01;11.00;;;2.20;;
69030;SDS011;56083;48.774;8.942;2023-07-13T05:54:27;12.05;;;2.00;;
69030;SDS011;56083;48.774;8.942;2023-07-13T05:56:55;6.82;;;2.00;;
69030;SDS011;56083;48.774;8.942;2023-07-13T05:59:21;11.88;;;2.10;;
69030;SDS011;56083;48.774;8.942;2023-07-13T06:01:46;17.92;;;2.55;;
69030;SDS011;56083;48.774;8.942;2023-07-13T06:04:12;15.00;;;2.35;;
69030;SDS011;56083;48.774;8.942;2023-07-13T06:06:37;8.30;;;2.22;;
69030;SDS011;56083;48.774;8.942;2023-07-13T06:09:03;14.80;;;2.47;;
69030;SDS011;56083;48.774;8.942;2023-07-13T06:11:29;20.10;;;2.30;;
69030;SDS011;56083;48.774;8.942;2023-07-13T06:13:55;17.80;;;2.55;;
69030;SDS011;56083;48.774;8.942;2023-07-13T06:16:21;20.90;;;2.58;;
69030;SDS011;56083;48.774;8.942;2023-07-13T06:18:47;22.02;;;2.30;;
69030;SDS011;56083;48.774;8.942;2023-07-13T06:21:14;21.30;;;3.00;;
69030;SDS011;56083;48.774;8.942;2023-07-13T06:23:42;16.50;;;2.40;;
69030;SDS011;56083;48.774;8.942;2023-07-13T06:26:07;29.75;;;2.90;;
69030;SDS011;56083;48.774;8.942;2023-07-13T06:28:34;21.08;;;2.30;;
69030;SDS011;56083;48.774;8.942;2023-07-13T06:31:00;17.58;;;2.10;;
69030;SDS011;56083;48.774;8.942;2023-07-13T06:33:26;19.40;;;1.83;;
69030;SDS011;56083;48.774;8.942;2023-07-13T06:35:52;11.43;;;2.00;;
69030;SDS011;56083;48.774;8.942;2023-07-13T06:38:19;5.47;;;1.67;;
69030;SDS011;56083;48.774;8.942;2023-07-13T06:40:45;5.13;;;1.52;;
69030;SDS011;56083;48.774;8.942;2023-07-13T06:43:11;7.30;;;1.35;;
69030;SDS011;56083;48.774;8.942;2023-07-13T06:45:40;6.88;;;1.33;;
69030;SDS011;56083;48.774;8.942;2023-07-13T06:48:07;7.25;;;1.67;;
69030;SDS011;56083;48.774;8.942;2023-07-13T06:50:33;6.22;;;1.55;;
69030;SDS011;56083;48.774;8.942;2023-07-13T06:52:59;11.23;;;1.90;;
69030;SDS011;56083;48.774;8.942;2023-07-13T06:55:25;6.47;;;1.63;;
69030;SDS011;56083;48.774;8.942;2023-07-13T06:57:51;7.78;;;1.63;;
69030;SDS011;56083;48.774;8.942;2023-07-13T07:00:16;5.20;;;1.20;;
69030;SDS011;56083;48.774;8.942;2023-07-13T07:02:42;12.68;;;1.73;;
69030;SDS011;56083;48.774;8.942;2023-07-13T07:05:08;2.03;;;0.93;;
69030;SDS011;56083;48.774;8.942;2023-07-13T07:07:34;4.70;;;1.40;;
69030;SDS011;56083;48.774;8.942;2023-07-13T07:09:59;11.38;;;1.48;;
69030;SDS011;56083;48.774;8.942;2023-07-13T07:12:25;6.40;;;1.35;;
69030;SDS011;56083;48.774;8.942;2023-07-13T07:14:50;11.38;;;1.80;;
69030;SDS011;56083;48.774;8.942;2023-07-13T07:17:16;4.85;;;1.05;;
69030;SDS011;56083;48.774;8.942;2023-07-13T07:19:42;6.82;;;1.40;;
69030;SDS011;56083;48.774;8.942;2023-07-13T07:22:07;7.18;;;1.67;;
69030;SDS011;56083;48.774;8.942;2023-07-13T07:24:33;4.38;;;1.35;;
69030;SDS011;56083;48.774;8.942;2023-07-13T07:26:59;7.72;;;1.25;;
69030;SDS011;56083;48.774;8.942;2023-07-13T07:29:24;5.50;;;1.20;;
69030;SDS011;56083;48.774;8.942;2023-07-13T07:31:52;4.78;;;1.38;;
69030;SDS011;56083;48.774;8.942;2023-07-13T07:34:18;6.10;;;1.30;;
69030;SDS011;56083;48.774;8.942;2023-07-13T07:36:44;4.35;;;1.02;;
69030;SDS011;56083;48.774;8.942;2023-07-13T07:39:10;5.85;;;1.30;;
69030;SDS011;56083;48.774;8.942;2023-07-13T07:41:36;6.05;;;1.35;;
69030;SDS011;56083;48.774;8.942;2023-07-13T07:44:03;4.18;;;1.17;;
69030;SDS011;56083;48.774;8.942;2023-07-13T07:46:29;7.97;;;1.30;;
69030;SDS011;56083;48.774;8.942;2023-07-13T07:48:55;5.60;;;1.33;;
69030;SDS011;56083;48.774;8.942;2023-07-13T07:51:21;6.32;;;1.05;;
69030;SDS011;56083;48.774;8.942;2023-07-13T07:53:47;6.78;;;1.38;;
69030;SDS011;56083;48.774;8.942;2023-07-13T07:56:13;8.75;;;1.40;;
69030;SDS011;56083;48.774;8.942;2023-07-13T07:58:41;4.18;;;1.05;;
69030;SDS011;56083;48.774;8.942;2023-07-13T08:01:07;7.57;;;1.60;;
69030;SDS011;56083;48.774;8.942;2023-07-13T08:03:33;5.25;;;1.35;;
69030;SDS011;56083;48.774;8.942;2023-07-13T08:05:59;8.32;;;1.17;;
69030;SDS011;56083;48.774;8.942;2023-07-13T08:08:25;3.35;;;1.20;;
69030;SDS011;56083;48.774;8.942;2023-07-13T08:10:51;3.75;;;1.20;;
69030;SDS011;56083;48.774;8.942;2023-07-13T08:13:17;4.60;;;1.10;;
69030;SDS011;56083;48.774;8.942;2023-07-13T08:15:42;8.73;;;1.25;;
69030;SDS011;56083;48.774;8.942;2023-07-13T08:18:08;8.60;;;1.58;;
69030;SDS011;56083;48.774;8.942;2023-07-13T08:20:36;6.45;;;1.20;;
69030;SDS011;56083;48.774;8.942;2023-07-13T08:23:03;4.32;;;1.15;;
69030;SDS011;56083;48.774;8.942;2023-07-13T08:25:29;6.43;;;1.33;;
69030;SDS011;56083;48.774;8.942;2023-07-13T08:27:54;4.35;;;1.17;;
69030;SDS011;56083;48.774;8.942;2023-07-13T08:30:20;7.20;;;1.20;;
69030;SDS011;56083;48.774;8.942;2023-07-13T08:32:46;8.07;;;1.40;;
69030;SDS011;56083;48.774;8.942;2023-07-13T08:35:11;4.80;;;1.20;;
69030;SDS011;56083;48.774;8.942;2023-07-13T08:37:38;6.40;;;1.20;;
69030;SDS011;56083;48.774;8.942;2023-07-13T08:40:04;6.15;;;1.15;;
69030;SDS011;56083;48.774;8.942;2023-07-13T08:45:14;6.38;;;1.02;;
69030;SDS011;56083;48.774;8.942;2023-07-13T08:48:11;5.60;;;1.10;;
69030;SDS011;56083;48.774;8.942;2023-07-13T08:51:44;5.18;;;1.27;;
69030;SDS011;56083;48.774;8.942;2023-07-13T08:53:41;5.30;;;1.30;;
69030;SDS011;56083;48.774;8.942;2023-07-13T08:56:19;6.20;;;1.10;;
69030;SDS011;56083;48.774;8.942;2023-07-13T08:58:48;4.03;;;1.08;;
69030;SDS011;56083;48.774;8.942;2023-07-13T09:04:05;8.35;;;1.40;;
69030;SDS011;56083;48.774;8.942;2023-07-13T09:09:18;5.10;;;1.20;;
69030;SDS011;56083;48.774;8.942;2023-07-13T09:15:31;7.18;;;1.40;;
69030;SDS011;56083;48.774;8.942;2023-07-13T09:18:37;2.85;;;1.00;;
69030;SDS011;56083;48.774;8.942;2023-07-13T09:21:11;3.50;;;1.10;;
69030;SDS011;56083;48.774;8.942;2023-07-13T09:23:40;3.17;;;1.20;;
69030;SDS011;56083;48.774;8.942;2023-07-13T09:26:10;7.03;;;1.02;;
69030;SDS011;56083;48.774;8.942;2023-07-13T09:28:43;8.38;;;1.25;;
69030;SDS011;56083;48.774;8.942;2023-07-13T09:31:12;3.30;;;1.20;;
69030;SDS011;56083;48.774;8.942;2023-07-13T09:33:59;4.30;;;1.10;;
69030;SDS011;56083;48.774;8.942;2023-07-13T09:36:29;4.57;;;1.20;;
69030;SDS011;56083;48.774;8.942;2023-07-13T09:39:22;4.38;;;1.48;;
69030;SDS011;56083;48.774;8.942;2023-07-13T09:42:07;7.00;;;1.67;;
69030;SDS011;56083;48.774;8.942;2023-07-13T09:47:22;3.80;;;1.17;;
69030;SDS011;56083;48.774;8.942;2023-07-13T09:49:59;6.97;;;1.30;;
69030;SDS011;56083;48.774;8.942;2023-07-13T09:52:27;4.60;;;1.17;;
69030;SDS011;56083;48.774;8.942;2023-07-13T09:55:04;10.60;;;1.55;;
69030;SDS011;56083;48.774;8.942;2023-07-13T10:00:19;3.97;;;0.90;;
69030;SDS011;56083;48.774;8.942;2023-07-13T10:02:50;5.80;;;1.10;;
69030;SDS011;56083;48.774;8.942;2023-07-13T10:05:36;6.07;;;1.58;;
69030;SDS011;56083;48.774;8.942;2023-07-13T10:08:03;6.22;;;1.30;;
69030;SDS011;56083;48.774;8.942;2023-07-13T10:10:32;3.30;;;1.20;;
69030;SDS011;56083;48.774;8.942;2023-07-13T10:12:58;4.35;;;1.50;;
69030;SDS011;56083;48.774;8.942;2023-07-13T10:15:24;4.68;;;1.17;;
69030;SDS011;56083;48.774;8.942;2023-07-13T10:17:52;5.40;;;1.20;;
69030;SDS011;56083;48.774;8.942;2023-07-13T10:20:20;3.88;;;1.00;;
69030;SDS011;56083;48.774;8.942;2023-07-13T10:25:16;4.45;;;1.33;;
69030;SDS011;56083;48.774;8.942;2023-07-13T10:27:45;7.20;;;1.30;;
69030;SDS011;56083;48.774;8.942;2023-07-13T10:33:08;7.82;;;1.65;;
69030;SDS011;56083;48.774;8.942;2023-07-13T10:35:36;5.55;;;1.20;;
69030;SDS011;56083;48.774;8.942;2023-07-13T10:38:07;6.70;;;1.20;;
69030;SDS011;56083;48.774;8.942;2023-07-13T10:40:40;7.50;;;1.15;;
69030;SDS011;56083;48.774;8.942;2023-07-13T10:43:23;4.75;;;1.20;;
69030;SDS011;56083;48.774;8.942;2023-07-13T10:46:09;3.47;;;1.10;;
69030;SDS011;56083;48.774;8.942;2023-07-13T10:48:39;4.43;;;1.20;;
69030;SDS011;56083;48.774;8.942;2023-07-13T10:51:06;8.05;;;1.10;;
69030;SDS011;56083;48.774;8.942;2023-07-13T10:53:36;7.38;;;1.35;;
69030;SDS011;56083;48.774;8.942;2023-07-13T10:56:05;5.00;;;1.40;;
69030;SDS011;56083;48.774;8.942;2023-07-13T10:58:47;4.47;;;1.23;;
69030;SDS011;56083;48.774;8.942;2023-07-13T11:01:54;8.40;;;1.23;;
69030;SDS011;56083;48.774;8.942;2023-07-13T11:04:40;4.65;;;1.40;;
69030;SDS011;56083;48.774;8.942;2023-07-13T11:07:16;4.88;;;1.38;;
69030;SDS011;56083;48.774;8.942;2023-07-13T11:09:50;5.32;;;1.23;;
69030;SDS011;56083;48.774;8.942;2023-07-13T11:20:09;5.68;;;1.40;;
69030;SDS011;56083;48.774;8.942;2023-07-13T11:22:45;12.68;;;1.60;;
69030;SDS011;56083;48.774;8.942;2023-07-13T11:25:30;11.23;;;1.30;;
69030;SDS011;56083;48.774;8.942;2023-07-13T11:28:21;7.07;;;1.48;;
69030;SDS011;56083;48.774;8.942;2023-07-13T11:33:30;5.18;;;1.10;;
69030;SDS011;56083;48.774;8.942;2023-07-13T11:36:16;5.55;;;1.30;;
69030;SDS011;56083;48.774;8.942;2023-07-13T11:41:35;3.58;;;1.23;;
69030;SDS011;56083;48.774;8.942;2023-07-13T11:44:12;6.65;;;1.45;;
69030;SDS011;56083;48.774;8.942;2023-07-13T11:46:44;5.45;;;1.40;;
69030;SDS011;56083;48.774;8.942;2023-07-13T11:49:16;7.03;;;1.05;;
69030;SDS011;56083;48.774;8.942;2023-07-13T11:51:46;5.97;;;1.40;;
69030;SDS011;56083;48.774;8.942;2023-07-13T11:54:41;3.25;;;1.67;;
69030;SDS011;56083;48.774;8.942;2023-07-13T12:00:03;7.10;;;1.40;;
69030;SDS011;56083;48.774;8.942;2023-07-13T12:02:40;6.72;;;1.60;;
69030;SDS011;56083;48.774;8.942;2023-07-13T12:05:11;6.35;;;1.38;;
69030;SDS011;56083;48.774;8.942;2023-07-13T12:07:46;7.82;;;1.35;;
69030;SDS011;56083;48.774;8.942;2023-07-13T12:12:56;4.82;;;1.38;;
69030;SDS011;56083;48.774;8.942;2023-07-13T12:15:32;8.07;;;1.25;;
69030;SDS011;56083;48.774;8.942;2023-07-13T12:18:00;6.43;;;1.58;;
69030;SDS011;56083;48.774;8.942;2023-07-13T12:20:27;3.53;;;1.30;;
69030;SDS011;56083;48.774;8.942;2023-07-13T12:23:00;6.20;;;1.58;;
69030;SDS011;56083;48.774;8.942;2023-07-13T12:25:27;8.55;;;1.40;;
69030;SDS011;56083;48.774;8.942;2023-07-13T12:27:53;11.60;;;1.50;;
69030;SDS011;56083;48.774;8.942;2023-07-13T12:33:00;6.70;;;1.40;;
69030;SDS011;56083;48.774;8.942;2023-07-13T12:35:39;7.50;;;1.95;;
69030;SDS011;56083;48.774;8.942;2023-07-13T12:38:17;6.75;;;1.67;;
69030;SDS011;56083;48.774;8.942;2023-07-13T12:40:48;5.90;;;1.70;;
69030;SDS011;56083;48.774;8.942;2023-07-13T12:43:15;8.07;;;1.38;;
69030;SDS011;56083;48.774;8.942;2023-07-13T12:45:54;6.90;;;1.30;;
69030;SDS011;56083;48.774;8.942;2023-07-13T12:48:25;5.55;;;1.30;;
69030;SDS011;56083;48.774;8.942;2023-07-13T12:50:51;2.88;;;1.25;;
69030;SDS011;56083;48.774;8.942;2023-07-13T12:53:21;6.47;;;1.60;;
69030;SDS011;56083;48.774;8.942;2023-07-13T12:55:56;6.43;;;1.48;;
69030;SDS011;56083;48.774;8.942;2023-07-13T12:58:31;4.82;;;1.40;;
69030;SDS011;56083;48.774;8.942;2023-07-13T13:01:01;6.10;;;1.33;;
69030;SDS011;56083;48.774;8.942;2023-07-13T13:03:30;7.30;;;1.27;;
69030;SDS011;56083;48.774;8.942;2023-07-13T13:06:01;4.13;;;1.17;;
69030;SDS011;56083;48.774;8.942;2023-07-13T13:08:55;6.78;;;1.60;;
69030;SDS011;56083;48.774;8.942;2023-07-13T13:11:27;4.47;;;1.67;;
69030;SDS011;56083;48.774;8.942;2023-07-13T13:13:54;10.40;;;1.48;;
69030;SDS011;56083;48.774;8.942;2023-07-13T13:16:43;4.15;;;1.35;;
69030;SDS011;56083;48.774;8.942;2023-07-13T13:19:14;8.07;;;1.40;;
69030;SDS011;56083;48.774;8.942;2023-07-13T13:21:45;6.70;;;1.73;;
69030;SDS011;56083;48.774;8.942;2023-07-13T13:24:19;10.73;;;1.60;;
69030;SDS011;56083;48.774;8.942;2023-07-13T13:26:46;7.15;;;1.20;;
69030;SDS011;56083;48.774;8.942;2023-07-13T13:29:14;6.90;;;1.50;;
69030;SDS011;56083;48.774;8.942;2023-07-13T13:31:41;9.95;;;1.55;;
69030;SDS011;56083;48.774;8.942;2023-07-13T13:34:11;6.68;;;1.20;;
69030;SDS011;56083;48.774;8.942;2023-07-13T13:36:41;8.13;;;1.50;;
69030;SDS011;56083;48.774;8.942;2023-07-13T13:39:25;5.13;;;1.40;;
69030;SDS011;56083;48.774;8.942;2023-07-13T13:42:01;7.85;;;1.30;;
69030;SDS011;56083;48.774;8.942;2023-07-13T13:44:30;3.63;;;1.38;;
69030;SDS011;56083;48.774;8.942;2023-07-13T13:46:56;2.55;;;1.20;;
69030;SDS011;56083;48.774;8.942;2023-07-13T13:49:24;8.52;;;1.35;;
69030;SDS011;56083;48.774;8.942;2023-07-13T13:51:51;8.10;;;1.35;;
69030;SDS011;56083;48.774;8.942;2023-07-13T13:54:19;3.63;;;1.20;;
69030;SDS011;56083;48.774;8.942;2023-07-13T13:56:46;5.28;;;1.45;;
69030;SDS011;56083;48.774;8.942;2023-07-13T13:59:13;7.22;;;1.40;;
69030;SDS011;56083;48.774;8.942;2023-07-13T14:01:39;7.78;;;1.17;;
69030;SDS011;56083;48.774;8.942;2023-07-13T14:04:08;6.75;;;1.17;;
69030;SDS011;56083;48.774;8.942;2023-07-13T14:06:40;8.88;;;1.40;;
69030;SDS011;56083;48.774;8.942;2023-07-13T14:09:08;6.18;;;1.40;;
69030;SDS011;56083;48.774;8.942;2023-07-13T14:11:40;7.53;;;1.30;;
69030;SDS011;56083;48.774;8.942;2023-07-13T14:14:16;6.88;;;1.30;;
69030;SDS011;56083;48.774;8.942;2023-07-13T14:16:52;4.45;;;1.30;;
69030;SDS011;56083;48.774;8.942;2023-07-13T14:19:21;5.43;;;1.60;;
69030;SDS011;56083;48.774;8.942;2023-07-13T14:21:47;4.03;;;1.30;;
69030;SDS011;56083;48.774;8.942;2023-07-13T14:24:15;7.88;;;1.48;;
69030;SDS011;56083;48.774;8.942;2023-07-13T14:26:45;5.03;;;1.27;;
69030;SDS011;56083;48.774;8.942;2023-07-13T14:29:14;3.10;;;1.25;;
69030;SDS011;56083;48.774;8.942;2023-07-13T14:31:44;5.75;;;1.50;;
69030;SDS011;56083;48.774;8.942;2023-07-13T14:34:11;7.80;;;1.25;;
69030;SDS011;56083;48.774;8.942;2023-07-13T14:36:45;5.57;;;1.33;;
69030;SDS011;56083;48.774;8.942;2023-07-13T14:39:15;12.52;;;1.42;;
69030;SDS011;56083;48.774;8.942;2023-07-13T14:41:49;6.93;;;1.30;;
69030;SDS011;56083;48.774;8.942;2023-07-13T14:44:17;8.30;;;1.50;;
69030;SDS011;56083;48.774;8.942;2023-07-13T14:46:45;5.13;;;1.27;;
69030;SDS011;56083;48.774;8.942;2023-07-13T14:49:32;5.22;;;1.25;;
69030;SDS011;56083;48.774;8.942;2023-07-13T14:52:15;6.95;;;1.48;;
69030;SDS011;56083;48.774;8.942;2023-07-13T14:54:43;4.43;;;1.27;;
69030;SDS011;56083;48.774;8.942;2023-07-13T14:57:11;4.05;;;1.10;;
69030;SDS011;56083;48.774;8.942;2023-07-13T14:59:42;5.03;;;1.30;;
69030;SDS011;56083;48.774;8.942;2023-07-13T15:02:30;6.57;;;1.38;;
69030;SDS011;56083;48.774;8.942;2023-07-13T15:05:05;7.80;;;1.40;;
69030;SDS011;56083;48.774;8.942;2023-07-13T15:07:41;6.47;;;1.30;;
69030;SDS011;56083;48.774;8.942;2023-07-13T15:10:17;8.13;;;1.40;;
69030;SDS011;56083;48.774;8.942;2023-07-13T15:12:45;5.85;;;1.20;;
69030;SDS011;56083;48.774;8.942;2023-07-13T15:15:11;6.63;;;1.60;;
69030;SDS011;56083;48.774;8.942;2023-07-13T15:17:43;5.63;;;1.33;;
69030;SDS011;56083;48.774;8.942;2023-07-13T15:22:57;5.90;;;1.63;;
69030;SDS011;56083;48.774;8.942;2023-07-13T15:25:24;3.42;;;1.35;;
69030;SDS011;56083;48.774;8.942;2023-07-13T15:27:55;3.67;;;1.38;;
69030;SDS011;56083;48.774;8.942;2023-07-13T15:30:22;7.53;;;1.13;;
69030;SDS011;56083;48.774;8.942;2023-07-13T15:35:51;3.33;;;1.40;;
69030;SDS011;56083;48.774;8.942;2023-07-13T15:38:22;4.82;;;1.25;;
69030;SDS011;56083;48.774;8.942;2023-07-13T15:41:04;8.13;;;1.20;;
69030;SDS011;56083;48.774;8.942;2023-07-13T15:43:45;4.53;;;1.05;;
69030;SDS011;56083;48.774;8.942;2023-07-13T15:46:11;5.55;;;1.35;;
69030;SDS011;56083;48.774;8.942;2023-07-13T15:48:37;5.40;;;1.63;;
69030;SDS011;56083;48.774;8.942;2023-07-13T15:51:10;5.65;;;1.23;;